Time;durP1;ratioP1;P1;durP2;ratioP2;P2;SDS_P1;SDS_P2;PMS_P1;PMS_P2;Temp;Humidity;BMP_temperature;BMP_pressure;BME280_temperature;BME280_humidity;BME280_pressure;Samples;Min_cycle;Max_cycle;Signal;HPM_P1;HPM_P2
2022/07/15 00:01:44;;;;;;;0.10;0.10;;;;;;;9.18;100.00;101802.63;5051204;28;20102;-49
2022/07/15 00:04:10;;;;;;;0.60;0.13;;;;;;;9.16;100.00;101804.59;5059894;28;20032;-50
2022/07/15 00:06:35;;;;;;;0.17;0.10;;;;;;;9.12;100.00;101803.25;5065393;28;20109;-48
2022/07/15 00:09:01;;;;;;;1.08;0.10;;;;;;;9.11;100.00;101794.47;5060784;28;20702;-50
2022/07/15 00:11:27;;;;;;;0.00;0.00;;;;;;;9.09;100.00;101788.50;5056915;28;20078;-52
2022/07/15 00:13:52;;;;;;;0.90;0.10;;;;;;;9.07;100.00;101794.91;5042721;28;20489;-53
2022/07/15 00:16:18;;;;;;;4.95;0.10;;;;;;;9.05;100.00;101787.13;5057172;28;20049;-49
2022/07/15 00:18:43;;;;;;;0.32;0.05;;;;;;;8.99;100.00;101781.63;5063507;28;20587;-48
2022/07/15 00:21:08;;;;;;;0.20;0.20;;;;;;;8.98;100.00;101795.81;5056138;28;20037;-47
2022/07/15 00:23:35;;;;;;;2.40;0.52;;;;;;;8.93;100.00;101794.44;5042100;28;20021;-51
2022/07/15 00:26:00;;;;;;;0.80;0.47;;;;;;;8.87;100.00;101802.97;5062241;28;20025;-50
2022/07/15 00:28:27;;;;;;;3.00;0.40;;;;;;;8.81;100.00;101795.63;5044894;28;20633;-49
2022/07/15 00:30:55;;;;;;;1.30;0.10;;;;;;;8.75;100.00;101798.84;5056893;28;20370;-50
2022/07/15 00:33:20;;;;;;;0.68;0.25;;;;;;;8.70;100.00;101803.75;5060941;28;20040;-47
2022/07/15 00:35:46;;;;;;;0.00;0.00;;;;;;;8.64;100.00;101806.97;5056592;28;20032;-47
2022/07/15 00:38:11;;;;;;;1.17;0.15;;;;;;;8.57;100.00;101808.53;5061106;28;20835;-47
2022/07/15 00:40:44;;;;;;;0.30;0.10;;;;;;;8.50;100.00;101809.13;5063197;28;20084;-50
2022/07/15 00:43:10;;;;;;;1.23;0.20;;;;;;;8.44;100.00;101808.84;5060227;28;20044;-47
2022/07/15 00:45:36;;;;;;;0.13;0.13;;;;;;;8.38;100.00;101801.47;5072327;28;20385;-48
2022/07/15 00:48:01;;;;;;;0.73;0.00;;;;;;;8.36;100.00;101806.06;5065047;28;20066;-48
2022/07/15 00:50:28;;;;;;;1.63;0.00;;;;;;;8.34;100.00;101808.88;5055050;28;20040;-48
2022/07/15 00:52:57;;;;;;;1.85;0.10;;;;;;;8.39;100.00;101805.78;5056569;28;20109;-49
2022/07/15 00:55:24;;;;;;;1.75;0.15;;;;;;;8.44;100.00;101798.28;5061790;28;20028;-50
2022/07/15 00:57:51;;;;;;;0.10;0.00;;;;;;;8.45;100.00;101795.50;5060066;28;20783;-51
2022/07/15 01:00:17;;;;;;;0.85;0.40;;;;;;;8.44;100.00;101796.50;5051092;28;20536;-53
2022/07/15 01:02:49;;;;;;;0.10;0.08;;;;;;;8.44;100.00;101799.13;5057210;28;20037;-49
2022/07/15 01:05:16;;;;;;;0.93;0.20;;;;;;;8.40;100.00;101796.91;5071463;28;20032;-49
2022/07/15 01:07:41;;;;;;;0.13;0.10;;;;;;;8.36;100.00;101803.44;5055798;28;20055;-49
2022/07/15 01:10:07;;;;;;;3.78;0.20;;;;;;;8.30;100.00;101796.91;5049549;28;20033;-52
2022/07/15 01:12:37;;;;;;;1.90;0.30;;;;;;;8.25;100.00;101794.69;5062942;28;20079;-49
2022/07/15 01:15:02;;;;;;;2.05;0.10;;;;;;;8.19;100.00;101799.75;5040512;28;20123;-47
2022/07/15 01:17:28;;;;;;;3.90;0.22;;;;;;;8.12;100.00;101782.78;5056664;28;20094;-49
2022/07/15 01:19:53;;;;;;;2.10;0.40;;;;;;;8.09;100.00;101789.19;5062462;28;20032;-49
2022/07/15 01:22:19;;;;;;;0.98;0.10;;;;;;;8.09;100.00;101790.00;5062430;28;20024;-53
2022/07/15 01:24:44;;;;;;;0.38;0.10;;;;;;;8.11;100.00;101802.25;5053585;28;20040;-51
2022/07/15 01:27:09;;;;;;;0.75;0.10;;;;;;;8.12;100.00;101803.91;5057793;28;20021;-48
2022/07/15 01:29:35;;;;;;;1.05;0.10;;;;;;;8.08;100.00;101804.22;5057553;28;20017;-48
2022/07/15 01:32:00;;;;;;;1.48;0.35;;;;;;;8.03;100.00;101802.97;5064372;28;20773;-51
2022/07/15 01:34:26;;;;;;;2.85;0.32;;;;;;;7.96;100.00;101794.78;5035316;28;20029;-47
2022/07/15 01:36:51;;;;;;;0.30;0.03;;;;;;;7.93;100.00;101810.06;5052554;28;20036;-47
2022/07/15 01:39:16;;;;;;;3.75;0.20;;;;;;;7.91;100.00;101804.94;5043211;28;20086;-50
2022/07/15 01:41:42;;;;;;;0.40;0.20;;;;;;;7.89;100.00;101816.59;5045628;28;20030;-49
2022/07/15 01:44:07;;;;;;;1.63;0.15;;;;;;;7.84;100.00;101817.84;5061098;28;20184;-48
2022/07/15 01:46:33;;;;;;;1.85;0.65;;;;;;;7.81;100.00;101817.31;5065230;28;20527;-47
2022/07/15 01:51:42;;;;;;;3.10;1.10;;;;;;;7.73;100.00;101819.81;5063107;28;20142;-50
2022/07/15 01:54:07;;;;;;;0.55;0.10;;;;;;;7.76;100.00;101819.53;5062329;28;20059;-49
2022/07/15 01:56:33;;;;;;;0.70;0.32;;;;;;;7.80;100.00;101818.28;5053122;28;20040;-53
2022/07/15 01:58:58;;;;;;;0.95;0.50;;;;;;;7.83;100.00;101816.19;5045675;28;20050;-52
2022/07/15 02:01:24;;;;;;;0.50;0.20;;;;;;;7.83;100.00;101815.38;5043366;28;20033;-49
2022/07/15 02:03:49;;;;;;;2.60;0.28;;;;;;;7.83;100.00;101820.66;5062723;28;20445;-50
2022/07/15 02:06:16;;;;;;;1.63;0.20;;;;;;;7.82;100.00;101817.19;5062881;28;20367;-50
2022/07/15 02:08:42;;;;;;;0.95;0.00;;;;;;;7.80;100.00;101813.00;5059786;28;20116;-51
2022/07/15 02:11:07;;;;;;;0.28;0.05;;;;;;;7.74;100.00;101821.47;5058541;28;20108;-47
2022/07/15 02:13:33;;;;;;;0.22;0.22;;;;;;;7.68;100.00;101828.16;5047892;28;20056;-48
2022/07/15 02:15:58;;;;;;;23.23;0.50;;;;;;;7.63;100.00;101828.56;5052391;28;20113;-51
2022/07/15 02:18:23;;;;;;;0.73;0.20;;;;;;;7.58;100.00;101816.75;5068598;28;20110;-49
2022/07/15 02:20:49;;;;;;;0.00;0.00;;;;;;;7.52;100.00;101812.88;5061124;28;20048;-47
2022/07/15 02:23:14;;;;;;;0.10;0.10;;;;;;;7.47;100.00;101816.91;5067702;28;20060;-50
2022/07/15 02:25:40;;;;;;;0.47;0.20;;;;;;;7.45;100.00;101819.66;5052511;28;20021;-47
2022/07/15 02:28:06;;;;;;;0.40;0.00;;;;;;;7.38;100.00;101822.03;5053068;28;20056;-48
2022/07/15 02:30:34;;;;;;;0.40;0.35;;;;;;;7.34;100.00;101822.44;5064938;28;20024;-47
2022/07/15 02:33:00;;;;;;;0.45;0.20;;;;;;;7.31;100.00;101822.72;5064720;28;20052;-48
2022/07/15 02:35:26;;;;;;;0.10;0.00;;;;;;;7.32;100.00;101827.00;5065849;28;20031;-47
2022/07/15 02:37:52;;;;;;;0.15;0.00;;;;;;;7.29;100.00;101816.75;5057971;28;20111;-48
2022/07/15 02:40:17;;;;;;;1.15;0.40;;;;;;;7.27;100.00;101821.31;5059018;28;20023;-47
2022/07/15 02:42:51;;;;;;;0.52;0.08;;;;;;;7.21;100.00;101820.88;5064389;28;20040;-49
2022/07/15 02:45:18;;;;;;;0.80;0.10;;;;;;;7.20;100.00;101818.38;5052577;28;20469;-47
2022/07/15 02:47:43;;;;;;;1.75;0.03;;;;;;;7.20;100.00;101815.72;5058830;28;20025;-49
2022/07/15 02:50:09;;;;;;;1.08;0.10;;;;;;;7.20;100.00;101824.50;5060893;28;20044;-51
2022/07/15 02:52:34;;;;;;;0.98;0.00;;;;;;;7.21;100.00;101820.88;5055993;28;20033;-53
2022/07/15 02:55:00;;;;;;;1.02;0.30;;;;;;;7.17;100.00;101823.91;5033200;28;20025;-53
2022/07/15 02:57:26;;;;;;;0.52;0.10;;;;;;;7.12;100.00;101829.59;5053130;28;20033;-53
2022/07/15 02:59:51;;;;;;;0.43;0.43;;;;;;;7.05;100.00;101825.84;5045125;28;20115;-50
2022/07/15 03:02:17;;;;;;;0.47;0.30;;;;;;;6.98;100.00;101822.09;5051047;28;20093;-50
2022/07/15 03:04:43;;;;;;;1.60;0.10;;;;;;;6.94;100.00;101824.16;5064125;28;20025;-50
2022/07/15 03:07:10;;;;;;;0.57;0.10;;;;;;;6.93;100.00;101826.94;5057880;28;20039;-47
2022/07/15 03:09:36;;;;;;;0.00;0.00;;;;;;;6.93;100.00;101821.66;5051020;28;20020;-50
2022/07/15 03:12:01;;;;;;;0.73;0.10;;;;;;;6.89;100.00;101822.88;5064265;28;20131;-49
2022/07/15 03:14:27;;;;;;;0.80;0.20;;;;;;;6.87;100.00;101820.41;5058770;28;20032;-50
2022/07/15 03:16:52;;;;;;;0.30;0.10;;;;;;;6.84;100.00;101822.44;5057687;28;20036;-53
2022/07/15 03:19:17;;;;;;;3.92;0.00;;;;;;;6.78;100.00;101822.00;5046144;28;20098;-51
2022/07/15 03:21:43;;;;;;;3.33;0.20;;;;;;;6.76;100.00;101820.47;5062282;28;20021;-49
2022/07/15 03:24:09;;;;;;;2.53;0.40;;;;;;;6.74;100.00;101815.34;5059648;28;20056;-50
2022/07/15 03:26:35;;;;;;;4.47;0.17;;;;;;;6.73;100.00;101820.75;5057906;28;20107;-47
2022/07/15 03:29:01;;;;;;;1.88;0.80;;;;;;;6.72;100.00;101822.56;5034648;28;20032;-49
2022/07/15 03:31:27;;;;;;;0.32;0.32;;;;;;;6.73;100.00;101816.31;5052629;28;20036;-49
2022/07/15 03:33:53;;;;;;;0.63;0.63;;;;;;;6.74;100.00;101819.78;5046018;28;20033;-49
2022/07/15 03:36:18;;;;;;;1.65;0.10;;;;;;;6.70;100.00;101808.66;5060322;28;20044;-51
2022/07/15 03:38:44;;;;;;;1.17;0.10;;;;;;;6.66;100.00;101814.31;5056360;28;20029;-49
2022/07/15 03:41:09;;;;;;;0.75;0.20;;;;;;;6.62;100.00;101813.78;5055290;28;20025;-48
2022/07/15 03:43:35;;;;;;;1.33;0.10;;;;;;;6.64;100.00;101811.84;5051423;28;20131;-49
2022/07/15 03:46:00;;;;;;;0.38;0.10;;;;;;;6.63;100.00;101814.59;5067930;28;20029;-50
2022/07/15 03:48:25;;;;;;;0.17;0.17;;;;;;;6.64;100.00;101819.75;5060976;28;20105;-50
2022/07/15 03:50:51;;;;;;;0.20;0.10;;;;;;;6.65;100.00;101813.50;5031412;28;20458;-50
2022/07/15 03:53:16;;;;;;;1.65;0.70;;;;;;;6.66;100.00;101811.69;5058792;28;20104;-52
2022/07/15 03:55:41;;;;;;;0.90;0.20;;;;;;;6.65;100.00;101813.50;5055863;28;20177;-49
2022/07/15 03:58:07;;;;;;;2.33;0.10;;;;;;;6.61;100.00;101812.13;5067029;28;20028;-49
2022/07/15 04:00:32;;;;;;;4.65;1.00;;;;;;;6.59;100.00;101807.94;5046443;28;20032;-50
2022/07/15 04:02:58;;;;;;;0.75;0.20;;;;;;;6.57;100.00;101810.69;5058750;28;20025;-49
2022/07/15 04:05:23;;;;;;;0.10;0.05;;;;;;;6.57;100.00;101817.78;5058272;28;20032;-48
2022/07/15 04:07:49;;;;;;;1.25;0.10;;;;;;;6.55;100.00;101813.44;5061200;28;20025;-51
2022/07/15 04:10:14;;;;;;;2.85;1.45;;;;;;;6.59;100.00;101814.03;5062848;28;20093;-50
2022/07/15 04:12:41;;;;;;;1.98;0.15;;;;;;;6.63;100.00;101806.69;5066375;28;20040;-50
2022/07/15 04:15:07;;;;;;;0.30;0.20;;;;;;;6.64;100.00;101803.94;5054089;28;20370;-48
2022/07/15 04:17:32;;;;;;;0.13;0.13;;;;;;;6.67;100.00;101795.75;5050680;28;20033;-47
2022/07/15 04:19:58;;;;;;;0.10;0.10;;;;;;;6.70;100.00;101806.03;5044102;28;20027;-50
2022/07/15 04:22:23;;;;;;;0.35;0.20;;;;;;;6.72;100.00;101804.09;5057631;28;20448;-49
2022/07/15 04:24:49;;;;;;;0.00;0.00;;;;;;;6.73;100.00;101803.13;5052570;28;20025;-49
2022/07/15 04:27:15;;;;;;;1.83;0.25;;;;;;;6.76;100.00;101799.38;5052985;28;20073;-49
2022/07/15 04:29:41;;;;;;;0.60;0.30;;;;;;;6.76;100.00;101800.25;5061223;28;20041;-52
2022/07/15 04:32:06;;;;;;;3.45;0.68;;;;;;;6.76;100.00;101797.59;5052306;28;20045;-47
2022/07/15 04:34:32;;;;;;;0.10;0.10;;;;;;;6.80;100.00;101792.88;5053791;28;20029;-49
2022/07/15 04:36:57;;;;;;;0.73;0.73;;;;;;;6.83;100.00;101792.63;5050854;28;20107;-48
2022/07/15 04:39:22;;;;;;;0.30;0.30;;;;;;;6.85;100.00;101792.50;5055973;28;20056;-48
2022/07/15 04:41:50;;;;;;;0.35;0.35;;;;;;;6.90;100.00;101798.19;5054675;28;20032;-51
2022/07/15 04:44:16;;;;;;;0.20;0.20;;;;;;;6.95;100.00;101788.06;5052836;28;20032;-51
2022/07/15 04:46:41;;;;;;;0.50;0.10;;;;;;;6.98;100.00;101786.00;5070809;28;20032;-50
2022/07/15 04:51:50;;;;;;;0.10;0.03;;;;;;;6.94;100.00;101783.75;5068155;28;20569;-51
2022/07/15 04:54:16;;;;;;;0.82;0.40;;;;;;;6.94;100.00;101781.97;5038035;28;20033;-51
2022/07/15 04:56:41;;;;;;;0.28;0.28;;;;;;;6.94;100.00;101781.13;5072718;28;20435;-47
2022/07/15 04:59:07;;;;;;;0.17;0.17;;;;;;;6.96;100.00;101787.09;5060368;28;20108;-50
2022/07/15 05:01:32;;;;;;;1.35;0.82;;;;;;;6.99;100.00;101786.81;5052604;28;20124;-50
2022/07/15 05:03:59;;;;;;;5.65;0.30;;;;;;;7.04;100.00;101781.16;5054976;28;20032;-53
2022/07/15 05:06:24;;;;;;;0.30;0.22;;;;;;;7.09;100.00;101774.50;5061940;28;20044;-51
2022/07/15 05:08:50;;;;;;;0.45;0.20;;;;;;;7.19;100.00;101779.78;5058997;28;20092;-51
2022/07/15 05:11:15;;;;;;;2.47;0.30;;;;;;;7.28;100.00;101791.31;5065192;28;20515;-50
2022/07/15 05:13:41;;;;;;;0.00;0.00;;;;;;;7.32;100.00;101790.06;5044741;28;20078;-49
2022/07/15 05:16:06;;;;;;;0.38;0.38;;;;;;;7.40;100.00;101790.22;5056831;28;20037;-50
2022/07/15 05:18:32;;;;;;;0.75;0.47;;;;;;;7.50;100.00;101791.03;5048058;28;20024;-49
2022/07/15 05:20:57;;;;;;;0.82;0.22;;;;;;;7.59;100.00;101787.59;5058548;28;20041;-49
2022/07/15 05:23:22;;;;;;;0.57;0.25;;;;;;;7.63;100.00;101788.97;5064187;28;20064;-49
2022/07/15 05:25:48;;;;;;;0.88;0.20;;;;;;;7.72;100.00;101789.94;5051072;28;20032;-54
2022/07/15 05:28:13;;;;;;;0.55;0.20;;;;;;;7.76;100.00;101786.03;5060886;28;20052;-50
2022/07/15 05:30:38;;;;;;;0.50;0.50;;;;;;;7.81;100.00;101788.25;5053193;28;20021;-51
2022/07/15 05:33:04;;;;;;;0.43;0.20;;;;;;;7.82;100.00;101782.84;5060698;28;20028;-51
2022/07/15 05:35:30;;;;;;;1.17;0.70;;;;;;;7.93;100.00;101781.84;5059246;28;20028;-52
2022/07/15 05:37:55;;;;;;;3.45;1.08;;;;;;;8.06;100.00;101785.03;5055275;28;20017;-53
2022/07/15 05:40:21;;;;;;;1.27;0.20;;;;;;;8.22;100.00;101784.41;5057681;28;20028;-50
2022/07/15 05:42:46;;;;;;;0.68;0.20;;;;;;;8.37;100.00;101786.59;5054354;28;20040;-50
2022/07/15 05:45:12;;;;;;;1.42;0.93;;;;;;;8.50;100.00;101795.06;5065761;28;20029;-48
2022/07/15 05:47:37;;;;;;;0.90;0.17;;;;;;;8.66;100.00;101791.81;5056826;28;20028;-49
2022/07/15 05:50:04;;;;;;;3.25;0.30;;;;;;;8.74;100.00;101789.25;5054858;28;20036;-48
2022/07/15 05:52:29;;;;;;;0.55;0.55;;;;;;;8.87;100.00;101800.31;5061862;28;20500;-49
2022/07/15 05:54:54;;;;;;;2.05;0.20;;;;;;;8.94;100.00;101795.28;5060190;28;20029;-49
2022/07/15 05:57:20;;;;;;;0.73;0.10;;;;;;;9.04;100.00;101796.06;5038243;28;20401;-53
2022/07/15 05:59:45;;;;;;;0.40;0.10;;;;;;;9.18;100.00;101795.53;5054947;28;20064;-53
2022/07/15 06:02:13;;;;;;;2.65;0.68;;;;;;;9.36;100.00;101795.53;5053513;28;20036;-52
2022/07/15 06:04:39;;;;;;;1.02;0.70;;;;;;;9.51;100.00;101790.56;5051930;28;20489;-50
2022/07/15 06:07:04;;;;;;;5.00;0.30;;;;;;;9.69;100.00;101781.78;5055482;28;20095;-50
2022/07/15 06:09:30;;;;;;;0.73;0.20;;;;;;;9.76;100.00;101788.94;5048250;28;20355;-54
2022/07/15 06:11:55;;;;;;;1.25;0.57;;;;;;;9.86;100.00;101788.00;5054919;28;20094;-50
2022/07/15 06:14:21;;;;;;;0.10;0.10;;;;;;;9.99;100.00;101781.34;5031850;28;20493;-54
2022/07/15 06:16:47;;;;;;;0.10;0.10;;;;;;;10.17;100.00;101777.78;5036541;28;20186;-53
2022/07/15 06:19:12;;;;;;;0.32;0.20;;;;;;;10.42;100.00;101786.75;5059056;28;20466;-52
2022/07/15 06:21:38;;;;;;;1.15;0.28;;;;;;;10.54;100.00;101788.13;5055153;28;20040;-54
2022/07/15 06:24:03;;;;;;;4.85;0.40;;;;;;;10.72;100.00;101781.91;5050976;28;20033;-54
2022/07/15 06:26:29;;;;;;;1.55;0.10;;;;;;;10.92;100.00;101780.66;5037468;28;20040;-50
2022/07/15 06:28:54;;;;;;;1.50;0.20;;;;;;;11.15;100.00;101780.84;5057560;28;20021;-52
2022/07/15 06:31:19;;;;;;;0.55;0.28;;;;;;;11.28;100.00;101783.03;5054840;28;20029;-55
2022/07/15 06:33:45;;;;;;;2.05;0.52;;;;;;;11.39;100.00;101784.56;5055871;28;20023;-52
2022/07/15 06:36:10;;;;;;;2.05;0.20;;;;;;;11.49;100.00;101778.09;5060436;28;20064;-49
2022/07/15 06:38:36;;;;;;;0.20;0.10;;;;;;;11.59;100.00;101777.94;5042239;28;20040;-52
2022/07/15 06:41:01;;;;;;;5.25;0.52;;;;;;;11.69;100.00;101769.78;5059292;28;20404;-54
2022/07/15 06:43:26;;;;;;;0.20;0.20;;;;;;;11.78;100.00;101782.91;5063807;28;20032;-55
2022/07/15 06:45:52;;;;;;;0.57;0.10;;;;;;;11.90;100.00;101778.13;5066796;28;20067;-54
2022/07/15 06:48:17;;;;;;;0.75;0.00;;;;;;;12.11;100.00;101774.09;5066063;28;20038;-52
2022/07/15 06:50:43;;;;;;;1.25;0.17;;;;;;;12.26;100.00;101780.34;5062710;28;20040;-54
2022/07/15 06:53:08;;;;;;;2.17;0.13;;;;;;;12.39;100.00;101775.34;5050879;28;20436;-51
2022/07/15 06:55:34;;;;;;;3.15;0.15;;;;;;;12.58;100.00;101782.09;5054030;28;20032;-54
2022/07/15 06:57:59;;;;;;;1.23;0.10;;;;;;;12.72;100.00;101777.88;5058373;28;20448;-53
2022/07/15 07:00:25;;;;;;;1.90;0.10;;;;;;;12.83;100.00;101781.97;5058792;28;20390;-50
2022/07/15 07:02:51;;;;;;;0.32;0.13;;;;;;;13.08;100.00;101780.00;5058645;28;20055;-52
2022/07/15 07:05:16;;;;;;;1.25;0.43;;;;;;;13.27;100.00;101768.94;5055937;28;20039;-52
2022/07/15 07:07:42;;;;;;;1.70;0.73;;;;;;;13.57;100.00;101768.22;5053713;28;20036;-64
2022/07/15 07:10:08;;;;;;;0.60;0.00;;;;;;;13.93;100.00;101761.19;5037905;28;20071;-62
2022/07/15 07:12:34;;;;;;;0.10;0.00;;;;;;;14.30;100.00;101755.97;5055914;28;20109;-54
2022/07/15 07:15:02;;;;;;;1.17;0.20;;;;;;;14.54;100.00;101741.56;5053288;28;20033;-51
2022/07/15 07:17:27;;;;;;;3.35;0.13;;;;;;;14.75;100.00;101746.94;5040250;28;20061;-55
2022/07/15 07:19:52;;;;;;;0.47;0.08;;;;;;;14.91;100.00;101750.41;5056366;28;20157;-52
2022/07/15 07:22:18;;;;;;;4.13;0.22;;;;;;;14.95;100.00;101744.50;5058782;28;20028;-52
2022/07/15 07:24:44;;;;;;;0.85;0.05;;;;;;;14.96;100.00;101745.31;5054100;28;20039;-51
2022/07/15 07:27:10;;;;;;;3.45;0.15;;;;;;;15.03;100.00;101746.22;5050344;28;20028;-54
2022/07/15 07:29:36;;;;;;;1.13;0.05;;;;;;;15.16;100.00;101740.19;5048019;28;20020;-52
2022/07/15 07:32:02;;;;;;;0.10;0.10;;;;;;;15.42;100.00;101744.97;5050140;28;20500;-51
2022/07/15 07:34:27;;;;;;;1.50;0.10;;;;;;;15.49;100.00;101741.31;5056141;28;20036;-52
2022/07/15 07:36:53;;;;;;;5.25;0.10;;;;;;;15.56;100.00;101743.22;5057483;28;20032;-49
2022/07/15 07:39:18;;;;;;;2.47;0.10;;;;;;;15.58;100.00;101743.84;5048848;28;20021;-49
2022/07/15 07:41:44;;;;;;;0.25;0.00;;;;;;;15.72;100.00;101736.78;5039869;28;20028;-53
2022/07/15 07:44:09;;;;;;;1.33;0.10;;;;;;;15.84;100.00;101732.56;5037754;28;20040;-52
2022/07/15 07:46:35;;;;;;;2.20;0.15;;;;;;;15.94;100.00;101729.53;5055220;28;20028;-56
2022/07/15 07:49:01;;;;;;;1.65;0.00;;;;;;;16.11;100.00;101725.53;5041518;28;20028;-53
2022/07/15 07:51:26;;;;;;;0.00;0.00;;;;;;;16.18;100.00;101721.03;5039908;28;20036;-48
2022/07/15 07:53:52;;;;;;;1.27;0.00;;;;;;;16.30;100.00;101726.66;5044795;28;20405;-51
2022/07/15 07:56:17;;;;;;;0.43;0.00;;;;;;;16.47;100.00;101721.78;5061607;28;20032;-52
2022/07/15 07:58:42;;;;;;;0.05;0.00;;;;;;;16.69;100.00;101723.31;5058305;28;20469;-53
2022/07/15 08:01:08;;;;;;;0.50;0.00;;;;;;;16.58;100.00;101721.22;5053188;28;20456;-54
2022/07/15 08:03:34;;;;;;;0.00;0.00;;;;;;;16.58;100.00;101726.56;5058626;28;20636;-51
2022/07/15 08:05:59;;;;;;;1.20;0.05;;;;;;;16.60;100.00;101724.53;5041165;28;20041;-51
2022/07/15 08:08:25;;;;;;;1.35;0.20;;;;;;;16.71;100.00;101723.94;5053078;28;20029;-54
2022/07/15 08:10:53;;;;;;;0.98;0.20;;;;;;;16.93;100.00;101713.09;5060857;28;20037;-54
2022/07/15 08:13:21;;;;;;;1.00;0.22;;;;;;;17.08;100.00;101716.41;5063985;28;20025;-53
2022/07/15 08:15:47;;;;;;;0.40;0.20;;;;;;;17.12;100.00;101715.00;5049764;28;20060;-53
2022/07/15 08:18:13;;;;;;;0.40;0.00;;;;;;;17.17;100.00;101709.03;5059085;28;20044;-46
2022/07/15 08:20:40;;;;;;;2.03;0.20;;;;;;;17.21;100.00;101713.75;5043406;28;20059;-50
2022/07/15 08:23:05;;;;;;;1.65;0.85;;;;;;;17.46;100.00;101718.53;5066728;28;20386;-48
2022/07/15 08:25:34;;;;;;;0.10;0.00;;;;;;;17.62;100.00;101711.91;5060868;28;20161;-49
2022/07/15 08:28:00;;;;;;;0.30;0.00;;;;;;;17.69;100.00;101712.72;5059744;28;20038;-49
2022/07/15 08:30:27;;;;;;;0.10;0.00;;;;;;;17.67;100.00;101709.41;5058419;28;20033;-49
2022/07/15 08:32:54;;;;;;;2.75;0.10;;;;;;;17.80;100.00;101711.28;5066000;28;20498;-50
2022/07/15 08:35:21;;;;;;;0.43;0.00;;;;;;;17.93;100.00;101710.44;5052514;28;20044;-48
2022/07/15 08:37:46;;;;;;;1.30;0.00;;;;;;;17.96;100.00;101705.47;5053247;28;20032;-49
2022/07/15 08:40:13;;;;;;;0.03;0.00;;;;;;;17.83;100.00;101703.63;5059887;28;20078;-45
2022/07/15 08:42:41;;;;;;;1.48;0.08;;;;;;;17.80;100.00;101705.94;5058912;28;20082;-47
2022/07/15 08:45:07;;;;;;;2.13;0.13;;;;;;;17.82;100.00;101704.69;5054448;28;20035;-50
2022/07/15 08:47:33;;;;;;;1.88;0.10;;;;;;;17.99;100.00;101691.66;5072031;28;20397;-50
2022/07/15 08:49:58;;;;;;;2.90;0.20;;;;;;;18.32;100.00;101698.75;5059828;28;20173;-54
2022/07/15 08:52:25;;;;;;;0.63;0.10;;;;;;;18.57;100.00;101690.81;5056617;28;20103;-53
2022/07/15 08:54:51;;;;;;;0.85;0.10;;;;;;;18.56;100.00;101683.78;5076380;28;20052;-53
2022/07/15 08:57:17;;;;;;;0.20;0.10;;;;;;;18.62;100.00;101682.91;5039994;28;20082;-50
2022/07/15 08:59:45;;;;;;;0.20;0.15;;;;;;;18.67;100.00;101679.59;5062723;28;20025;-50
2022/07/15 09:02:12;;;;;;;1.30;0.00;;;;;;;18.96;100.00;101667.44;5056597;28;20040;-57
2022/07/15 09:05:16;;;;;;;0.30;0.00;;;;;;;19.46;100.00;101659.38;5052547;28;20033;-58
2022/07/15 09:07:55;;;;;;;0.00;0.00;;;;;;;19.87;100.00;101657.13;5041391;28;20053;-66
2022/07/15 09:10:43;;;;;;;1.27;0.20;;;;;;;20.00;100.00;101655.09;5058619;28;20021;-60
2022/07/15 09:13:20;;;;;;;0.90;0.00;;;;;;;20.00;100.00;101648.91;5056726;28;20518;-59
2022/07/15 09:15:46;;;;;;;0.00;0.00;;;;;;;19.99;100.00;101653.47;5063323;28;20020;-63
2022/07/15 09:18:14;;;;;;;0.90;0.00;;;;;;;20.02;100.00;101650.31;5063884;28;20032;-56
2022/07/15 09:20:42;;;;;;;4.90;0.20;;;;;;;20.22;100.00;101655.47;5040762;28;20021;-49
2022/07/15 09:23:09;;;;;;;0.55;0.00;;;;;;;20.20;100.00;101652.16;5062807;28;20028;-47
2022/07/15 09:25:36;;;;;;;0.55;0.00;;;;;;;19.83;100.00;101646.00;5062118;28;20058;-52
2022/07/15 09:28:07;;;;;;;0.38;0.38;;;;;;;19.56;100.00;101645.41;5057185;28;20105;-45
2022/07/15 09:33:36;;;;;;;1.48;0.47;;;;;;;20.02;100.00;101641.41;5065559;28;20396;-46
2022/07/15 09:36:05;;;;;;;0.35;0.00;;;;;;;20.22;100.00;101644.69;5050155;28;20442;-46
2022/07/15 09:38:47;;;;;;;2.85;0.00;;;;;;;20.13;100.00;101637.13;5038727;28;20032;-45
2022/07/15 09:41:35;;;;;;;0.60;0.00;;;;;;;19.97;100.00;101631.31;5060698;28;20028;-52
2022/07/15 09:44:21;;;;;;;0.00;0.00;;;;;;;20.05;100.00;101644.47;5059304;28;20570;-48
2022/07/15 09:46:49;;;;;;;0.17;0.00;;;;;;;20.39;100.00;101633.28;5066616;28;20612;-60
2022/07/15 09:49:27;;;;;;;0.15;0.00;;;;;;;20.91;100.00;101637.09;5051348;28;20119;-62
2022/07/15 09:51:58;;;;;;;0.65;0.30;;;;;;;21.28;100.00;101634.19;5065318;28;20105;-68
2022/07/15 09:54:25;;;;;;;0.10;0.10;;;;;;;21.18;99.96;101636.66;5062378;28;20033;-45
2022/07/15 09:56:51;;;;;;;0.82;0.00;;;;;;;20.81;100.00;101636.03;5045648;28;20097;-47
2022/07/15 09:59:19;;;;;;;0.10;0.10;;;;;;;20.74;100.00;101629.91;5062997;28;20484;-47
2022/07/15 10:01:49;;;;;;;0.20;0.00;;;;;;;20.84;96.38;101627.47;5057730;28;20033;-47
2022/07/15 10:04:16;;;;;;;0.55;0.00;;;;;;;20.75;96.20;101626.16;5046870;28;20025;-51
2022/07/15 10:06:43;;;;;;;0.60;0.00;;;;;;;20.97;96.48;101610.28;5060430;28;20039;-48
2022/07/15 10:09:09;;;;;;;3.35;0.00;;;;;;;21.06;95.50;101606.16;5061916;28;20060;-46
2022/07/15 10:11:41;;;;;;;0.30;0.08;;;;;;;20.94;93.55;101608.88;5041355;28;20029;-51
2022/07/15 10:14:28;;;;;;;1.38;0.47;;;;;;;21.07;92.29;101607.81;5063925;28;20037;-53
2022/07/15 10:17:20;;;;;;;0.52;0.00;;;;;;;21.51;86.29;101609.13;5059915;28;20040;-49
2022/07/15 10:20:10;;;;;;;2.15;0.00;;;;;;;21.72;87.83;101609.56;5051333;28;20085;-65
2022/07/15 10:22:49;;;;;;;2.50;0.10;;;;;;;22.00;89.17;101608.78;5059709;28;20517;-69
2022/07/15 10:25:23;;;;;;;1.33;0.10;;;;;;;22.26;86.96;101610.13;5032600;28;20460;-49
2022/07/15 10:28:03;;;;;;;0.35;0.00;;;;;;;22.29;86.04;101606.94;5051420;28;20036;-68
2022/07/15 10:30:29;;;;;;;1.02;0.17;;;;;;;21.94;86.48;101613.28;5053978;28;20029;-63
2022/07/15 10:33:03;;;;;;;0.57;0.00;;;;;;;22.12;86.90;101606.03;5033271;28;20039;-67
2022/07/15 10:35:47;;;;;;;0.75;0.13;;;;;;;22.45;80.93;101601.81;5049842;28;20036;-66
2022/07/15 10:38:35;;;;;;;1.35;0.20;;;;;;;22.57;78.85;101606.09;5054906;28;20035;-62
2022/07/15 10:41:14;;;;;;;2.63;0.73;;;;;;;22.77;76.52;101604.78;5035977;28;20127;-46
2022/07/15 10:43:44;;;;;;;0.65;0.35;;;;;;;23.11;74.28;101600.22;5065582;28;20039;-56
2022/07/15 10:46:30;;;;;;;4.13;0.00;;;;;;;23.35;73.38;101608.97;5063958;28;20028;-52
2022/07/15 10:48:58;;;;;;;0.57;0.00;;;;;;;23.41;73.91;101599.00;5047770;28;20040;-53
2022/07/15 10:51:36;;;;;;;0.80;0.10;;;;;;;23.48;70.68;101607.78;5043712;28;20116;-64
2022/07/15 10:54:02;;;;;;;0.80;0.10;;;;;;;23.32;72.66;101606.75;5057955;28;20424;-62
2022/07/15 10:56:41;;;;;;;0.60;0.10;;;;;;;23.17;68.03;101609.22;5059208;28;20064;-66
2022/07/15 10:59:26;;;;;;;0.20;0.20;;;;;;;22.92;64.87;101599.63;5058756;28;20079;-60
2022/07/15 11:01:58;;;;;;;0.00;0.00;;;;;;;23.13;66.89;101590.00;5038073;28;20040;-67
2022/07/15 11:04:26;;;;;;;0.52;0.00;;;;;;;22.94;67.93;101602.91;5046608;28;20089;-46
2022/07/15 11:09:57;;;;;;;0.30;0.00;;;;;;;22.69;68.25;101584.41;5051385;28;20041;-54
2022/07/15 11:12:28;;;;;;;0.10;0.00;;;;;;;22.64;70.00;101584.31;5047032;28;20041;-50
2022/07/15 11:15:02;;;;;;;0.55;0.10;;;;;;;22.70;68.62;101572.50;5049911;28;20047;-53
2022/07/15 11:17:34;;;;;;;0.13;0.10;;;;;;;22.53;68.10;101577.09;5060537;28;20040;-51
2022/07/15 11:20:08;;;;;;;1.38;0.13;;;;;;;23.12;68.97;101582.91;5032757;28;21242;-62
2022/07/15 11:22:35;;;;;;;0.98;0.00;;;;;;;23.11;66.61;101578.59;5052003;28;20079;-55
2022/07/15 11:25:01;;;;;;;0.20;0.00;;;;;;;23.09;66.35;101569.91;5053999;28;20052;-56
2022/07/15 11:27:26;;;;;;;0.05;0.00;;;;;;;22.92;63.63;101571.75;5062115;28;20048;-66
2022/07/15 11:30:02;;;;;;;0.20;0.10;;;;;;;22.88;63.42;101576.03;5063199;28;20031;-65
2022/07/15 11:32:28;;;;;;;0.10;0.00;;;;;;;22.99;64.61;101580.56;5051279;28;20045;-54
2022/07/15 11:34:55;;;;;;;0.47;0.00;;;;;;;22.85;63.18;101564.66;5064597;28;20032;-50